Historical Weather Data
Okotoks
Hwy 2A and Milligan Dr

Date
ET inches
Rain inches
Temperature °C
Humidity
Avg
Wind kmh
Avg
Solar Wm2
Avg
High
Avg
Low
09/01/2020 0.19 0.00 25.6 15.7 6.9 46 8.4 236
09/02/2020 0.08 0.03 16.8 11.5 4.4 67 10.3 123
09/03/2020 0.15 0.00 25.3 12.8 -0.2 61 6.6 215
09/04/2020 0.15 0.00 27.5 14.4 2.2 58 6.6 207
09/05/2020 0.17 0.00 31.2 17.9 8.6 53 7.5 204
09/06/2020 0.05 0.16 15.5 10.9 5.6 81 7.4 74
09/07/2020 0.06 0.59 9.9 4.4 -0.3 83 11.7 148
09/08/2020 0.12 0.00 20.0 7.7 -3.5 69 8.0 176
09/09/2020 0.14 0.00 23.9 12.8 3.3 62 5.3 218
09/10/2020 0.14 0.00 27.6 14.2 3.8 60 5.4 215
09/11/2020 0.17 0.00 29.8 17.0 5.8 50 9.1 213
09/12/2020 0.11 0.00 20.6 12.2 5.5 73 9.5 171
09/13/2020 0.08 0.00 17.5 10.4 5.3 65 8.9 112
09/14/2020 0.03 0.00 10.0 7.5 3.9 88 7.5 60
09/15/2020 0.04 0.00 11.7 8.4 6.5 82 4.4 63
09/16/2020 0.10 0.00 20.5 11.3 4.4 71 6.5 179
09/17/2020 0.12 0.00 21.3 12.2 3.6 70 9.0 168
09/18/2020 0.08 0.00 20.2 11.1 2.7 78 5.1 135
09/19/2020 0.05 0.00 19.0 13.7 8.5 70 4.8 51
09/20/2020 0.12 0.00 21.6 13.9 4.4 61 8.1 176
09/21/2020 0.11 0.00 23.0 11.3 0.6 58 6.8 168
09/22/2020 0.08 0.00 15.9 9.8 3.5 69 8.1 135
09/23/2020 0.12 0.00 21.7 11.2 -0.2 60 10.0 143
09/24/2020 0.18 0.00 20.2 14.3 3.6 38 16.8 181
09/25/2020 0.10 0.00 15.6 8.7 0.5 49 9.3 100
09/26/2020 0.12 0.00 16.4 8.1 -1.0 50 11.0 160
09/27/2020 0.11 0.00 18.1 7.4 -2.5 41 6.3 178
09/28/2020 0.09 0.00 25.3 12.0 2.3 48 6.8 87
09/29/2020 0.10 0.00 18.2 11.6 6.2 62 8.4 158
09/30/2020 0.07 0.00 16.5 9.7 4.1 54 5.8 109